Time;durP1;ratioP1;P1;durP2;ratioP2;P2;SDS_P1;SDS_P2;PMS_P1;PMS_P2;Temp;Humidity;BMP_temperature;BMP_pressure;BME280_temperature;BME280_humidity;BME280_pressure;Samples;Min_cycle;Max_cycle;Signal;HPM_P1;HPM_P2
2021/12/24 00:01:49;;;;;;;206.88;76.70;;;5.20;99.90;;;;;;5072887;28;20054;-75
2021/12/24 00:04:15;;;;;;;289.48;91.47;;;5.20;99.90;;;;;;5088545;28;20123;-75
2021/12/24 00:06:41;;;;;;;215.50;76.50;;;5.20;99.90;;;;;;5070462;28;20446;-75
2021/12/24 00:09:07;;;;;;;208.65;75.72;;;5.30;99.90;;;;;;5083353;28;21031;-75
2021/12/24 00:11:34;;;;;;;200.60;75.80;;;5.30;99.90;;;;;;5078694;28;20409;-75
2021/12/24 00:14:03;;;;;;;205.05;77.63;;;5.20;99.90;;;;;;5061303;28;20047;-75
2021/12/24 00:16:40;;;;;;;251.65;83.78;;;5.20;99.90;;;;;;5072631;28;20135;-75
2021/12/24 00:35:40;;;;;;;238.40;79.38;;;5.40;99.90;;;;;;5084189;28;20046;-75
2021/12/24 00:38:08;;;;;;;240.00;82.88;;;5.40;99.90;;;;;;5085417;28;20052;-75
2021/12/24 00:40:40;;;;;;;223.98;78.07;;;5.40;99.90;;;;;;5079680;28;20044;-75
2021/12/24 00:43:06;;;;;;;245.23;80.00;;;5.40;99.90;;;;;;5067925;28;20044;-75
2021/12/24 00:45:34;;;;;;;199.02;72.35;;;5.40;99.90;;;;;;5065774;28;20052;-75
2021/12/24 00:48:03;;;;;;;214.68;74.47;;;5.40;99.90;;;;;;5056959;28;20075;-75
2021/12/24 00:56:00;;;;;;;203.88;68.80;;;5.50;99.90;;;;;;5069581;28;20063;-75
2021/12/24 00:58:26;;;;;;;182.13;67.50;;;5.50;99.90;;;;;;5069239;28;20123;-75
2021/12/24 01:00:52;;;;;;;218.00;73.15;;;5.50;99.90;;;;;;5070414;28;20123;-74
2021/12/24 01:03:18;;;;;;;216.48;71.57;;;5.50;99.90;;;;;;5068482;28;20101;-75
2021/12/24 01:05:44;;;;;;;215.23;73.13;;;5.50;99.90;;;;;;5056671;28;20498;-75
2021/12/24 01:08:12;;;;;;;174.95;63.85;;;5.50;99.90;;;;;;5065869;28;20044;-74
2021/12/24 01:10:45;;;;;;;162.05;57.85;;;5.50;99.90;;;;;;5066461;28;20105;-75
2021/12/24 01:13:13;;;;;;;147.32;57.70;;;5.50;99.90;;;;;;5073638;28;20044;-75
2021/12/24 01:15:49;;;;;;;183.60;64.00;;;5.50;99.90;;;;;;5070364;28;20131;-75
2021/12/24 01:19:20;;;;;;;157.30;57.95;;;5.60;99.90;;;;;;5056912;28;20165;-75
2021/12/24 01:23:59;;;;;;;177.77;59.50;;;5.60;99.90;;;;;;5063849;28;20054;-75
2021/12/24 01:42:47;;;;;;;98.18;39.97;;;5.70;99.90;;;;;;5069562;28;20056;-74
2021/12/24 01:45:34;;;;;;;86.28;39.42;;;5.70;99.90;;;;;;5069638;28;20055;-74
2021/12/24 01:48:06;;;;;;;104.70;40.20;;;5.70;99.90;;;;;;5069623;28;20059;-75
2021/12/24 01:50:34;;;;;;;100.85;40.75;;;5.80;99.90;;;;;;5087249;28;20119;-74
2021/12/24 01:53:04;;;;;;;76.15;35.78;;;5.80;99.90;;;;;;5062003;28;20044;-74
2021/12/24 01:55:30;;;;;;;78.93;36.83;;;5.80;99.90;;;;;;5061666;28;20579;-74
2021/12/24 01:57:56;;;;;;;76.35;34.30;;;5.90;99.90;;;;;;5064681;28;20119;-74
2021/12/24 02:00:36;;;;;;;73.22;33.95;;;5.90;99.90;;;;;;5070412;28;20123;-75
2021/12/24 02:03:03;;;;;;;54.22;30.08;;;5.90;99.90;;;;;;5069642;28;20097;-75
2021/12/24 02:05:31;;;;;;;86.45;33.67;;;6.00;99.90;;;;;;5067763;28;20052;-75
2021/12/24 02:07:58;;;;;;;62.10;31.35;;;6.00;99.90;;;;;;5087688;28;20051;-75
2021/12/24 02:10:24;;;;;;;76.05;33.83;;;6.00;99.90;;;;;;5061762;28;20048;-74
2021/12/24 02:12:50;;;;;;;74.13;32.40;;;6.10;99.90;;;;;;5065379;28;20075;-75
2021/12/24 02:15:29;;;;;;;67.35;29.70;;;6.10;99.90;;;;;;5067404;28;20112;-75
2021/12/24 02:28:39;;;;;;;57.72;29.35;;;6.20;99.90;;;;;;5076437;28;20052;-74
2021/12/24 02:31:19;;;;;;;56.92;28.58;;;6.30;99.90;;;;;;5068372;28;20102;-74
2021/12/24 02:33:45;;;;;;;65.22;29.45;;;6.30;99.90;;;;;;5062589;28;20036;-74
2021/12/24 02:36:12;;;;;;;109.15;37.78;;;6.30;99.90;;;;;;5063388;28;20350;-74
2021/12/24 02:38:38;;;;;;;65.32;31.23;;;6.30;99.90;;;;;;5052289;28;20065;-74
2021/12/24 02:41:05;;;;;;;57.95;27.45;;;6.30;99.90;;;;;;5086325;28;20052;-74
2021/12/24 02:43:31;;;;;;;67.28;31.17;;;6.30;99.90;;;;;;5066793;28;20054;-74
2021/12/24 02:46:07;;;;;;;83.13;32.22;;;6.40;99.90;;;;;;5066055;28;20044;-75
2021/12/24 02:53:59;;;;;;;58.35;26.60;;;6.40;99.90;;;;;;5068019;28;20460;-74
2021/12/24 02:56:28;;;;;;;;;;;6.40;99.90;;;;;;5065167;28;20080;-74
2021/12/24 02:58:55;;;;;;;57.00;27.67;;;6.40;99.90;;;;;;5057522;28;20277;-74
2021/12/24 03:01:25;;;;;;;54.33;26.83;;;6.40;99.90;;;;;;5058805;28;20044;-74
2021/12/24 03:03:51;;;;;;;56.22;27.17;;;6.50;99.90;;;;;;5068243;28;20111;-74
2021/12/24 03:06:24;;;;;;;48.10;23.55;;;6.50;99.90;;;;;;5088169;28;20044;-74
2021/12/24 03:08:50;;;;;;;59.45;26.83;;;6.50;99.90;;;;;;5085282;28;20501;-75
2021/12/24 03:11:15;;;;;;;54.13;27.08;;;6.50;99.90;;;;;;5069477;28;20050;-74
2021/12/24 03:13:42;;;;;;;56.97;25.85;;;6.60;99.90;;;;;;5055982;28;20041;-74
2021/12/24 03:16:08;;;;;;;45.08;23.77;;;6.60;99.90;;;;;;5060792;28;20596;-74
2021/12/24 03:18:36;;;;;;;53.15;24.52;;;6.70;99.90;;;;;;5062569;28;20045;-75
2021/12/24 03:21:28;;;;;;;34.42;20.00;;;6.70;99.90;;;;;;5087192;28;20111;-75
2021/12/24 03:26:34;;;;;;;65.47;25.60;;;6.70;99.90;;;;;;5090631;28;20091;-74
2021/12/24 03:29:01;;;;;;;39.05;20.88;;;6.80;99.90;;;;;;5071533;28;20772;-74
2021/12/24 03:31:28;;;;;;;37.65;19.42;;;6.80;99.90;;;;;;5065976;28;20140;-74
2021/12/24 03:33:53;;;;;;;36.10;19.27;;;6.90;99.90;;;;;;5069846;28;20131;-74
2021/12/24 03:36:23;;;;;;;34.80;19.30;;;6.90;99.90;;;;;;5055990;28;20055;-74
2021/12/24 03:38:50;;;;;;;37.08;18.83;;;6.90;99.90;;;;;;5070311;28;20133;-74
2021/12/24 03:41:16;;;;;;;42.17;21.13;;;7.00;99.90;;;;;;5068258;28;20055;-74
2021/12/24 03:43:42;;;;;;;53.50;23.08;;;7.00;99.90;;;;;;5066790;28;20048;-74
2021/12/24 03:46:13;;;;;;;59.92;26.42;;;7.00;99.90;;;;;;5062834;28;21534;-74
2021/12/24 03:48:58;;;;;;;66.28;28.02;;;7.10;99.90;;;;;;5068644;28;20052;-74
2021/12/24 03:57:04;;;;;;;82.30;33.00;;;7.30;99.90;;;;;;5070046;28;20059;-75
2021/12/24 03:59:30;;;;;;;77.90;31.40;;;7.30;99.90;;;;;;5071753;28;20044;-74
2021/12/24 04:01:55;;;;;;;84.53;33.38;;;7.30;99.90;;;;;;5070207;28;20085;-74
2021/12/24 04:04:21;;;;;;;94.30;35.10;;;7.40;99.90;;;;;;5068012;28;20033;-74
2021/12/24 04:06:47;;;;;;;88.30;36.25;;;7.40;99.90;;;;;;5066009;28;20393;-74
2021/12/24 04:09:13;;;;;;;90.68;35.42;;;7.50;99.90;;;;;;5072092;28;20040;-74
2021/12/24 04:11:40;;;;;;;97.70;39.08;;;7.50;99.90;;;;;;5045636;28;20055;-75
2021/12/24 04:14:06;;;;;;;90.00;35.15;;;7.60;99.90;;;;;;5068184;28;20055;-75
2021/12/24 04:16:32;;;;;;;102.65;39.25;;;7.60;99.90;;;;;;5084557;28;20051;-75
2021/12/24 04:19:18;;;;;;;121.80;42.70;;;7.60;99.90;;;;;;5067162;28;20055;-75
2021/12/24 04:27:12;;;;;;;79.07;34.03;;;7.70;99.90;;;;;;5057575;28;20059;-74
2021/12/24 04:29:38;;;;;;;91.00;33.35;;;7.70;99.90;;;;;;5069006;28;20040;-74
2021/12/24 04:32:17;;;;;;;82.65;32.63;;;7.70;99.90;;;;;;5065078;28;20043;-74
2021/12/24 04:34:48;;;;;;;66.47;30.65;;;7.70;99.90;;;;;;5081996;28;20198;-74
2021/12/24 05:01:33;;;;;;;91.40;40.55;;;7.90;99.90;;;;;;5052982;28;20386;-74
2021/12/24 05:04:02;;;;;;;107.70;44.45;;;7.90;99.90;;;;;;5060858;28;20040;-75
2021/12/24 05:06:39;;;;;;;100.05;43.58;;;8.00;99.90;;;;;;5076506;28;20097;-74
2021/12/24 05:09:10;;;;;;;101.55;42.78;;;8.00;99.90;;;;;;5059522;28;20095;-74
2021/12/24 05:11:37;;;;;;;100.05;43.08;;;8.00;99.90;;;;;;5069243;28;20051;-74
2021/12/24 05:14:03;;;;;;;103.50;44.78;;;8.00;99.90;;;;;;5064705;28;20049;-74
2021/12/24 05:16:44;;;;;;;106.65;47.03;;;8.00;99.90;;;;;;5078131;28;20051;-74
2021/12/24 05:21:48;;;;;;;146.85;51.45;;;8.00;99.90;;;;;;5077513;28;20087;-74
2021/12/24 05:24:20;;;;;;;103.47;45.08;;;8.00;99.90;;;;;;5064815;28;20491;-74
2021/12/24 05:26:49;;;;;;;88.07;40.45;;;8.00;99.90;;;;;;5066736;28;20398;-74
2021/12/24 05:29:15;;;;;;;102.78;43.35;;;8.00;99.90;;;;;;5050610;28;20120;-74
2021/12/24 05:31:43;;;;;;;85.90;42.42;;;8.00;99.90;;;;;;5066458;28;20116;-74
2021/12/24 05:34:09;;;;;;;80.20;40.83;;;8.00;99.90;;;;;;5064965;28;20486;-74
2021/12/24 05:36:34;;;;;;;88.82;41.45;;;8.00;99.90;;;;;;5048041;28;20051;-75
2021/12/24 05:39:00;;;;;;;74.40;38.30;;;8.00;99.90;;;;;;5058915;28;20037;-74
2021/12/24 05:41:27;;;;;;;80.43;40.88;;;8.00;99.90;;;;;;5056221;28;20081;-74
2021/12/24 05:43:52;;;;;;;83.18;40.92;;;8.00;99.90;;;;;;5054480;28;20067;-75
2021/12/24 05:46:18;;;;;;;95.03;42.78;;;8.10;99.90;;;;;;5056896;28;20398;-74
2021/12/24 05:48:44;;;;;;;98.63;43.80;;;8.10;99.90;;;;;;5062657;28;20048;-74
2021/12/24 05:51:10;;;;;;;80.45;40.13;;;8.10;99.90;;;;;;5062781;28;20045;-75
2021/12/24 05:53:39;;;;;;;95.68;42.55;;;8.10;99.90;;;;;;5055809;28;20557;-75
2021/12/24 05:56:05;;;;;;;98.07;41.40;;;8.00;99.90;;;;;;5061152;28;20053;-75
2021/12/24 05:58:31;;;;;;;89.18;41.40;;;8.00;99.90;;;;;;5058760;28;20044;-74
2021/12/24 06:00:57;;;;;;;85.78;40.00;;;8.00;99.90;;;;;;5059642;28;20826;-74
2021/12/24 06:03:23;;;;;;;82.45;40.97;;;8.00;99.90;;;;;;5065775;28;20406;-74
2021/12/24 06:05:49;;;;;;;89.40;43.90;;;8.10;99.90;;;;;;5052338;28;20051;-74
2021/12/24 06:08:15;;;;;;;87.20;40.28;;;8.10;99.90;;;;;;5055537;28;20045;-74
2021/12/24 06:10:42;;;;;;;74.10;39.22;;;8.10;99.90;;;;;;5054846;28;20164;-74
2021/12/24 06:13:08;;;;;;;78.15;38.40;;;8.00;99.90;;;;;;5055923;28;20053;-74
2021/12/24 06:15:49;;;;;;;78.97;39.83;;;8.00;99.90;;;;;;5053759;28;20049;-74
2021/12/24 06:18:24;;;;;;;82.55;39.08;;;8.00;99.90;;;;;;5062379;28;20103;-74
2021/12/24 06:20:52;;;;;;;100.90;41.40;;;8.00;99.90;;;;;;5056910;28;20047;-74
2021/12/24 06:23:19;;;;;;;71.15;37.05;;;8.10;99.90;;;;;;5064583;28;20045;-74
2021/12/24 06:25:46;;;;;;;81.43;38.88;;;8.00;99.90;;;;;;5055233;28;20057;-75
2021/12/24 06:28:11;;;;;;;88.65;35.35;;;8.00;99.90;;;;;;5064003;28;20048;-75
2021/12/24 06:30:38;;;;;;;76.32;35.17;;;8.00;99.90;;;;;;5057423;28;20107;-75
2021/12/24 06:33:03;;;;;;;73.03;35.35;;;8.00;99.90;;;;;;5053166;28;20044;-74
2021/12/24 06:35:29;;;;;;;76.65;34.20;;;8.00;99.90;;;;;;5064400;28;20036;-74
2021/12/24 06:37:58;;;;;;;72.03;32.40;;;8.00;99.90;;;;;;5062662;28;20141;-74
2021/12/24 06:40:24;;;;;;;79.18;34.38;;;8.00;99.90;;;;;;5056997;28;20092;-74
2021/12/24 06:42:50;;;;;;;63.85;30.42;;;8.00;99.90;;;;;;5056016;28;20036;-75
2021/12/24 06:45:22;;;;;;;77.38;32.33;;;8.00;99.90;;;;;;5058281;28;20051;-75
2021/12/24 06:47:50;;;;;;;58.05;29.25;;;8.00;99.90;;;;;;5053696;28;20120;-74
2021/12/24 06:50:16;;;;;;;52.90;27.45;;;8.00;99.90;;;;;;5062962;28;20048;-75
2021/12/24 06:52:41;;;;;;;65.70;28.13;;;8.00;99.90;;;;;;5062520;28;20037;-74
2021/12/24 06:55:08;;;;;;;83.18;31.23;;;8.00;99.90;;;;;;5057952;28;20402;-75
2021/12/24 06:57:34;;;;;;;56.95;28.30;;;7.90;99.90;;;;;;5069745;28;20045;-75
2021/12/24 06:59:59;;;;;;;64.45;31.48;;;8.00;99.90;;;;;;5063267;28;20041;-75
2021/12/24 07:02:25;;;;;;;82.40;28.13;;;8.00;99.90;;;;;;5066077;28;20060;-75
2021/12/24 07:04:51;;;;;;;68.63;28.23;;;8.00;99.90;;;;;;5058661;28;20040;-75
2021/12/24 07:07:16;;;;;;;72.63;27.73;;;7.90;99.90;;;;;;5070416;28;20040;-75
2021/12/24 07:09:42;;;;;;;54.67;25.67;;;8.00;99.90;;;;;;5065211;28;20105;-73
2021/12/24 07:12:12;;;;;;;59.85;28.25;;;8.00;99.90;;;;;;5067589;28;20477;-73
2021/12/24 07:14:42;;;;;;;60.22;26.83;;;7.90;99.90;;;;;;5065995;28;20045;-73
2021/12/24 07:17:09;;;;;;;50.42;24.35;;;7.90;99.90;;;;;;5069919;28;20106;-73
2021/12/24 07:19:35;;;;;;;59.78;25.48;;;7.90;99.90;;;;;;5065814;28;20135;-73
2021/12/24 07:22:01;;;;;;;57.50;26.75;;;7.90;99.90;;;;;;5059163;28;20051;-73
2021/12/24 07:24:27;;;;;;;61.28;26.27;;;7.90;99.90;;;;;;5067270;28;20501;-73
2021/12/24 07:26:53;;;;;;;56.33;28.50;;;7.90;99.90;;;;;;5062301;28;20055;-73
2021/12/24 07:29:18;;;;;;;44.15;23.63;;;7.90;99.90;;;;;;5062756;28;20088;-73
2021/12/24 07:31:44;;;;;;;59.97;26.45;;;7.90;99.90;;;;;;5066713;28;20056;-73
2021/12/24 07:34:10;;;;;;;44.28;23.70;;;7.90;99.90;;;;;;5068986;28;20040;-73
2021/12/24 07:36:36;;;;;;;58.20;23.70;;;7.90;99.90;;;;;;5067995;28;20516;-73
2021/12/24 07:39:02;;;;;;;50.00;27.10;;;7.90;99.90;;;;;;5069541;28;20048;-73
2021/12/24 07:41:28;;;;;;;47.33;23.42;;;7.90;99.90;;;;;;5064458;28;20125;-73
2021/12/24 07:43:55;;;;;;;48.65;24.27;;;7.80;99.90;;;;;;5064547;28;20859;-73
2021/12/24 07:46:23;;;;;;;43.35;23.77;;;7.80;99.90;;;;;;5062416;28;20806;-73
2021/12/24 07:48:49;;;;;;;46.38;23.17;;;7.90;99.90;;;;;;5066537;28;20394;-73
2021/12/24 07:54:03;;;;;;;55.53;24.05;;;7.80;99.90;;;;;;5052923;28;20049;-73
2021/12/24 07:56:31;;;;;;;57.75;25.52;;;7.80;99.90;;;;;;5064412;28;20033;-73
2021/12/24 07:58:58;;;;;;;54.58;23.45;;;7.80;99.90;;;;;;5062344;28;20051;-73
2021/12/24 08:01:27;;;;;;;44.55;24.05;;;7.80;99.90;;;;;;5061423;28;20036;-73
2021/12/24 08:03:55;;;;;;;43.58;22.58;;;7.80;99.90;;;;;;5064847;28;20078;-72
2021/12/24 08:06:24;;;;;;;59.92;24.50;;;7.90;99.90;;;;;;5057253;28;20573;-73
2021/12/24 08:08:50;;;;;;;43.35;21.58;;;7.80;99.90;;;;;;5057796;28;20044;-73
2021/12/24 08:11:16;;;;;;;54.58;22.38;;;7.80;99.90;;;;;;5057777;28;20044;-72
2021/12/24 08:13:42;;;;;;;61.35;23.88;;;7.80;99.90;;;;;;5059712;28;20092;-73
2021/12/24 08:16:09;;;;;;;49.58;22.17;;;7.80;99.90;;;;;;5065704;28;20048;-72
2021/12/24 08:18:36;;;;;;;47.10;21.02;;;7.80;99.90;;;;;;5061331;28;20044;-73
2021/12/24 08:21:03;;;;;;;57.92;23.00;;;7.80;99.90;;;;;;5066154;28;20036;-72
2021/12/24 08:23:29;;;;;;;44.38;21.13;;;7.80;99.90;;;;;;5056619;28;20115;-72
2021/12/24 08:25:58;;;;;;;44.85;20.75;;;7.80;99.90;;;;;;5069115;28;20513;-72
2021/12/24 08:28:25;;;;;;;50.35;20.65;;;7.80;99.90;;;;;;5078378;28;20056;-72
2021/12/24 08:30:51;;;;;;;48.72;19.38;;;7.80;99.90;;;;;;5083624;28;20044;-71
2021/12/24 08:33:17;;;;;;;40.97;17.63;;;7.70;99.90;;;;;;5088262;28;20076;-72
2021/12/24 08:35:43;;;;;;;47.40;17.17;;;7.80;99.90;;;;;;5082476;28;20723;-72
2021/12/24 08:38:09;;;;;;;40.97;18.20;;;7.80;99.90;;;;;;5081111;28;20041;-72
2021/12/24 08:40:35;;;;;;;44.08;17.15;;;7.80;99.90;;;;;;5082003;28;20048;-72
2021/12/24 08:43:01;;;;;;;41.20;18.48;;;7.80;99.90;;;;;;5089801;28;20401;-72
2021/12/24 08:45:27;;;;;;;43.78;18.33;;;7.80;99.90;;;;;;5088501;28;20055;-72
2021/12/24 08:47:52;;;;;;;50.65;19.13;;;7.80;99.90;;;;;;5077302;28;20040;-73
2021/12/24 08:50:18;;;;;;;46.22;18.85;;;7.80;99.90;;;;;;5074288;28;20047;-73
2021/12/24 08:52:46;;;;;;;48.63;20.70;;;7.80;99.90;;;;;;5086206;28;20089;-74
2021/12/24 08:55:16;;;;;;;51.40;18.50;;;7.80;99.90;;;;;;5058358;28;20057;-73
2021/12/24 08:57:42;;;;;;;51.22;18.23;;;7.80;99.90;;;;;;5076853;28;20038;-73
2021/12/24 09:00:11;;;;;;;47.40;19.90;;;7.80;99.90;;;;;;5078811;28;20044;-73
2021/12/24 09:02:38;;;;;;;43.45;21.13;;;7.90;99.90;;;;;;5086014;28;20090;-73
2021/12/24 09:05:08;;;;;;;50.33;19.55;;;7.90;99.90;;;;;;5080093;28;20068;-73
2021/12/24 09:07:35;;;;;;;39.22;20.17;;;7.90;99.90;;;;;;5086795;28;20044;-73
2021/12/24 09:10:04;;;;;;;45.60;19.45;;;7.90;99.90;;;;;;5086999;28;20101;-73
2021/12/24 09:12:30;;;;;;;48.33;19.05;;;7.90;99.90;;;;;;5095150;28;20111;-72
2021/12/24 09:14:55;;;;;;;53.20;18.35;;;7.90;99.90;;;;;;5089648;28;20462;-74
2021/12/24 09:17:21;;;;;;;50.88;19.25;;;7.90;99.90;;;;;;5087630;28;20036;-73
2021/12/24 09:19:50;;;;;;;54.38;18.60;;;7.90;99.90;;;;;;5086453;28;20036;-74
2021/12/24 09:22:18;;;;;;;46.95;19.67;;;7.90;99.90;;;;;;5086261;28;20047;-73
2021/12/24 09:24:47;;;;;;;48.55;18.42;;;7.90;99.90;;;;;;5083093;28;20040;-74
2021/12/24 09:27:13;;;;;;;50.08;18.30;;;7.90;99.90;;;;;;5086118;28;20564;-74
2021/12/24 09:29:39;;;;;;;36.20;18.60;;;7.90;99.90;;;;;;5074462;28;20056;-74
2021/12/24 09:32:06;;;;;;;27.85;15.40;;;7.90;99.90;;;;;;5076698;28;20054;-74
2021/12/24 09:34:31;;;;;;;47.03;20.23;;;7.90;99.90;;;;;;5074430;28;20052;-73
2021/12/24 09:36:57;;;;;;;51.47;18.38;;;7.90;99.90;;;;;;5064718;28;20409;-74
2021/12/24 09:39:23;;;;;;;41.38;17.58;;;7.90;99.90;;;;;;5075430;28;20042;-74
2021/12/24 09:41:49;;;;;;;41.15;17.42;;;7.90;99.90;;;;;;5081977;28;20508;-74
2021/12/24 09:44:15;;;;;;;44.97;17.45;;;7.90;99.90;;;;;;5085452;28;20051;-74
2021/12/24 09:46:42;;;;;;;45.22;17.40;;;7.90;99.90;;;;;;5071515;28;20044;-73
2021/12/24 09:49:13;;;;;;;43.97;17.17;;;7.90;99.90;;;;;;5085499;28;20051;-74
2021/12/24 09:51:46;;;;;;;41.55;17.95;;;8.00;99.90;;;;;;5081367;28;20101;-72
2021/12/24 09:54:15;;;;;;;39.65;16.70;;;7.90;99.90;;;;;;5085502;28;20046;-72
2021/12/24 09:56:41;;;;;;;45.92;16.20;;;7.90;99.90;;;;;;5080193;28;20170;-72
2021/12/24 09:59:07;;;;;;;38.50;15.98;;;7.90;99.90;;;;;;5079054;28;20040;-71
2021/12/24 10:01:58;;;;;;;54.33;19.88;;;7.90;99.90;;;;;;5076158;28;20053;-72
2021/12/24 10:04:26;;;;;;;48.78;18.95;;;7.90;99.90;;;;;;5063611;28;20578;-72
2021/12/24 10:06:55;;;;;;;47.47;17.98;;;7.90;99.90;;;;;;5083303;28;20051;-72
2021/12/24 10:09:28;;;;;;;49.17;17.95;;;8.00;99.90;;;;;;5085186;28;20040;-72
2021/12/24 10:12:00;;;;;;;51.08;19.50;;;8.00;99.90;;;;;;5080381;28;20520;-72
2021/12/24 10:14:35;;;;;;;36.28;17.30;;;8.00;99.90;;;;;;5082067;28;20053;-72
2021/12/24 10:17:02;;;;;;;53.72;18.88;;;8.00;99.90;;;;;;5077248;28;20545;-73
2021/12/24 10:19:28;;;;;;;51.03;18.80;;;8.00;99.90;;;;;;5093945;28;20465;-74
2021/12/24 10:22:00;;;;;;;56.78;19.67;;;8.00;99.90;;;;;;5086354;28;20039;-74
2021/12/24 10:24:26;;;;;;;44.83;17.35;;;8.00;99.90;;;;;;5068638;28;20778;-74
2021/12/24 10:26:55;;;;;;;39.67;17.33;;;8.00;99.90;;;;;;5066560;28;20047;-74
2021/12/24 10:29:26;;;;;;;;;;;8.10;99.90;;;;;;5071002;28;20041;-73
2021/12/24 10:31:56;;;;;;;35.58;15.82;;;8.10;99.90;;;;;;5053950;28;19920;-73
2021/12/24 10:34:22;;;;;;;41.17;15.13;;;8.10;99.90;;;;;;5082854;28;20040;-73
2021/12/24 10:36:55;;;;;;;47.35;14.10;;;8.10;99.90;;;;;;5068185;28;20096;-73
2021/12/24 10:39:24;;;;;;;28.15;11.82;;;8.10;99.90;;;;;;5063788;28;20048;-73
2021/12/24 10:41:51;;;;;;;36.78;11.68;;;8.10;99.90;;;;;;5075739;28;20067;-73
2021/12/24 10:44:26;;;;;;;31.17;11.88;;;8.10;99.90;;;;;;5086125;28;20075;-73
2021/12/24 10:46:58;;;;;;;24.13;9.75;;;8.20;99.90;;;;;;5085107;28;20036;-73
2021/12/24 10:54:47;;;;;;;7.70;5.93;;;8.00;99.90;;;;;;5062934;28;20046;-73
2021/12/24 10:57:18;;;;;;;5.63;4.90;;;7.80;99.90;;;;;;5080203;28;20048;-73
2021/12/24 10:59:45;;;;;;;7.15;5.13;;;7.50;99.90;;;;;;5067154;28;20048;-73
2021/12/24 11:02:12;;;;;;;4.97;4.10;;;7.40;99.90;;;;;;5079185;28;20063;-73
2021/12/24 11:04:37;;;;;;;8.02;5.18;;;7.20;99.90;;;;;;5065441;28;20047;-73
2021/12/24 11:07:30;;;;;;;5.85;5.20;;;7.00;99.90;;;;;;5088509;28;20408;-73
2021/12/24 11:10:16;;;;;;;6.53;5.55;;;6.90;99.90;;;;;;5064775;28;20051;-73
2021/12/24 11:12:44;;;;;;;8.65;6.43;;;6.70;99.90;;;;;;5077616;28;20048;-73
2021/12/24 11:15:37;;;;;;;7.28;6.07;;;6.50;99.90;;;;;;5056784;28;20068;-73
2021/12/24 11:18:12;;;;;;;7.85;6.25;;;6.50;99.90;;;;;;5064494;28;20055;-73
2021/12/24 11:20:38;;;;;;;8.35;6.90;;;6.40;99.90;;;;;;5083632;28;20133;-73
2021/12/24 11:23:13;;;;;;;9.23;6.57;;;6.30;99.90;;;;;;5065933;28;20143;-73
2021/12/24 11:25:42;;;;;;;7.38;6.05;;;6.20;99.90;;;;;;5066925;28;20044;-73
2021/12/24 11:28:10;;;;;;;8.88;6.55;;;6.20;99.90;;;;;;5068516;28;20501;-73
2021/12/24 11:30:40;;;;;;;10.20;7.53;;;6.10;99.90;;;;;;5066185;28;20530;-74
2021/12/24 11:33:06;;;;;;;10.23;7.55;;;6.10;99.90;;;;;;5065562;28;20044;-74
2021/12/24 11:35:33;;;;;;;9.15;7.80;;;6.10;99.90;;;;;;5064147;28;20118;-73
2021/12/24 11:38:00;;;;;;;13.15;9.00;;;6.00;99.90;;;;;;5065357;28;20052;-73
2021/12/24 11:40:27;;;;;;;11.32;8.68;;;6.10;99.90;;;;;;5058471;28;20128;-73
2021/12/24 11:43:03;;;;;;;10.13;7.25;;;6.10;99.90;;;;;;5062106;28;20040;-73
2021/12/24 11:45:30;;;;;;;9.48;6.30;;;6.20;99.90;;;;;;5063288;28;20049;-73
2021/12/24 11:47:56;;;;;;;7.55;6.47;;;6.20;99.90;;;;;;5063128;28;20136;-74
2021/12/24 11:50:26;;;;;;;7.13;5.55;;;6.30;99.90;;;;;;5065906;28;20048;-74
2021/12/24 11:52:56;;;;;;;8.05;5.45;;;6.40;99.90;;;;;;5057949;28;20135;-74
2021/12/24 11:55:24;;;;;;;8.80;6.30;;;6.40;99.90;;;;;;5066056;28;20041;-74
2021/12/24 11:57:52;;;;;;;8.07;6.40;;;6.40;99.90;;;;;;5059825;28;20526;-74
2021/12/24 12:00:25;;;;;;;7.05;5.90;;;6.40;99.90;;;;;;5065858;28;20505;-74
2021/12/24 12:02:51;;;;;;;7.50;6.00;;;6.40;99.90;;;;;;5059274;28;20048;-74
2021/12/24 12:05:19;;;;;;;7.57;6.15;;;6.40;99.90;;;;;;5066802;28;20056;-74
2021/12/24 12:07:45;;;;;;;7.00;5.40;;;6.50;99.90;;;;;;5060574;28;20049;-74
2021/12/24 12:10:12;;;;;;;7.40;6.65;;;6.50;99.90;;;;;;5064132;28;20052;-74
2021/12/24 12:12:39;;;;;;;8.18;7.03;;;6.50;99.90;;;;;;5068845;28;20076;-74
2021/12/24 12:15:26;;;;;;;8.93;7.27;;;6.40;99.90;;;;;;5065965;28;20041;-74
2021/12/24 12:18:04;;;;;;;8.57;7.78;;;6.40;99.90;;;;;;5063413;28;20362;-74
2021/12/24 12:20:49;;;;;;;11.38;9.43;;;6.40;99.90;;;;;;5066582;28;20630;-75
2021/12/24 12:23:44;;;;;;;10.73;9.25;;;6.40;99.90;;;;;;5067834;28;20043;-75
2021/12/24 12:26:37;;;;;;;11.15;9.55;;;6.30;99.90;;;;;;5066054;28;20057;-75
2021/12/24 12:29:24;;;;;;;11.60;9.25;;;6.30;99.90;;;;;;5083699;28;20090;-75
2021/12/24 12:32:12;;;;;;;9.87;8.87;;;6.30;99.90;;;;;;5049241;28;20103;-75
2021/12/24 12:34:41;;;;;;;14.38;9.98;;;6.20;99.90;;;;;;5038080;28;20374;-75
2021/12/24 12:37:18;;;;;;;13.60;9.82;;;6.20;99.90;;;;;;5059149;28;20048;-75
2021/12/24 12:39:46;;;;;;;14.65;10.90;;;6.20;99.90;;;;;;5068019;28;20032;-75
2021/12/24 12:42:16;;;;;;;14.95;11.07;;;6.20;99.90;;;;;;5078232;28;20046;-75
2021/12/24 12:44:49;;;;;;;14.75;10.52;;;6.20;99.90;;;;;;5063795;28;20040;-74
2021/12/24 12:47:21;;;;;;;14.20;10.63;;;6.20;99.90;;;;;;5064299;28;20040;-75
2021/12/24 12:49:54;;;;;;;17.15;11.75;;;6.30;99.90;;;;;;5058790;28;20049;-74
2021/12/24 12:52:30;;;;;;;16.25;11.55;;;6.30;99.90;;;;;;5068027;28;20043;-75
2021/12/24 12:54:56;;;;;;;14.27;11.20;;;6.30;99.90;;;;;;5071895;28;20046;-75
2021/12/24 12:57:33;;;;;;;15.88;11.82;;;6.30;99.90;;;;;;5086659;28;20176;-75
2021/12/24 13:00:27;;;;;;;15.07;11.68;;;6.30;99.90;;;;;;5049775;28;20059;-75
2021/12/24 13:02:56;;;;;;;15.73;11.07;;;6.30;99.90;;;;;;5061253;28;20063;-75
2021/12/24 13:05:26;;;;;;;15.15;10.82;;;6.40;99.90;;;;;;5062810;28;20082;-75
2021/12/24 13:07:55;;;;;;;12.73;10.32;;;6.40;99.90;;;;;;5054723;28;20908;-75
2021/12/24 13:10:20;;;;;;;14.13;10.65;;;6.40;99.90;;;;;;5085951;28;20098;-75
2021/12/24 13:12:46;;;;;;;13.93;9.13;;;6.30;99.90;;;;;;5067142;28;20060;-75
2021/12/24 13:15:16;;;;;;;13.13;8.63;;;6.40;99.90;;;;;;5080770;28;20051;-75
2021/12/24 13:17:48;;;;;;;12.55;9.45;;;6.40;99.90;;;;;;5067055;28;20142;-75
2021/12/24 13:20:31;;;;;;;10.68;9.43;;;6.40;99.90;;;;;;5068257;28;20815;-75
2021/12/24 13:22:56;;;;;;;12.32;10.07;;;6.40;99.90;;;;;;5067092;28;20048;-75
2021/12/24 13:25:23;;;;;;;15.13;10.27;;;6.50;99.90;;;;;;5082911;28;20149;-75
2021/12/24 13:27:54;;;;;;;15.23;10.32;;;6.40;99.90;;;;;;5094446;28;20159;-75
2021/12/24 13:30:28;;;;;;;12.00;10.23;;;6.50;99.90;;;;;;5065007;28;20037;-75
2021/12/24 13:33:07;;;;;;;12.32;10.38;;;6.50;99.90;;;;;;5069114;28;20082;-75
2021/12/24 13:35:49;;;;;;;14.38;10.65;;;6.60;99.90;;;;;;5058207;28;20624;-75
2021/12/24 13:38:26;;;;;;;15.13;11.30;;;6.70;99.90;;;;;;5069499;28;20044;-75
2021/12/24 13:40:53;;;;;;;10.48;9.35;;;6.60;99.90;;;;;;5063469;28;20410;-75
2021/12/24 13:43:19;;;;;;;13.15;10.00;;;6.60;99.90;;;;;;5059455;28;20119;-75
2021/12/24 13:45:49;;;;;;;13.02;8.77;;;6.60;99.90;;;;;;5057617;28;20382;-75
2021/12/24 13:48:28;;;;;;;10.98;9.05;;;6.60;99.90;;;;;;5064490;28;20083;-75
2021/12/24 13:56:20;;;;;;;11.60;8.73;;;6.50;99.90;;;;;;5065944;28;20059;-76
2021/12/24 13:58:55;;;;;;;9.52;8.00;;;6.50;99.90;;;;;;5083019;28;20082;-76
2021/12/24 14:01:26;;;;;;;9.18;7.82;;;6.40;99.90;;;;;;5063204;28;20573;-76
2021/12/24 14:03:52;;;;;;;8.45;7.60;;;6.40;99.90;;;;;;5066175;28;20036;-75
2021/12/24 14:06:18;;;;;;;8.18;7.38;;;6.40;99.90;;;;;;5068894;28;20036;-76
2021/12/24 14:08:44;;;;;;;11.55;7.82;;;6.40;99.90;;;;;;5067143;28;20055;-75
2021/12/24 14:11:14;;;;;;;9.02;8.18;;;6.40;99.90;;;;;;5073645;28;20039;-76
2021/12/24 14:13:45;;;;;;;8.68;7.75;;;6.40;99.90;;;;;;5074543;28;20035;-76
2021/12/24 14:18:55;;;;;;;9.65;8.63;;;6.30;99.90;;;;;;5068945;28;20109;-75
2021/12/24 14:21:46;;;;;;;10.00;7.65;;;6.30;99.90;;;;;;5061986;28;20501;-76
2021/12/24 14:24:24;;;;;;;8.43;7.50;;;6.30;99.90;;;;;;5059942;28;20044;-76
2021/12/24 14:27:02;;;;;;;9.25;7.97;;;6.30;99.90;;;;;;5078360;28;20052;-75
2021/12/24 14:29:30;;;;;;;8.63;7.40;;;6.30;99.90;;;;;;5064844;28;20524;-75
2021/12/24 14:32:00;;;;;;;10.25;8.57;;;6.20;99.90;;;;;;5067035;28;20056;-75
2021/12/24 14:34:30;;;;;;;8.88;7.20;;;6.20;99.90;;;;;;5065659;28;20214;-75
2021/12/24 14:37:03;;;;;;;7.55;6.75;;;6.20;99.90;;;;;;5075319;28;20052;-75
2021/12/24 14:39:45;;;;;;;9.05;7.72;;;6.20;99.90;;;;;;5076188;28;20198;-75
2021/12/24 14:42:20;;;;;;;7.88;6.60;;;6.20;99.90;;;;;;5064024;28;20075;-75
2021/12/24 14:44:47;;;;;;;8.13;7.22;;;6.10;99.90;;;;;;5060596;28;20055;-75
2021/12/24 14:47:18;;;;;;;14.50;8.88;;;6.10;99.90;;;;;;5067061;28;20045;-75